createdAt,value
2023-04-26T00:00:50.295Z,3.47
2023-04-26T00:03:16.867Z,3.57
2023-04-26T00:05:43.709Z,4.00
2023-04-26T00:08:10.467Z,4.00
2023-04-26T00:10:37.161Z,3.63
2023-04-26T00:13:03.701Z,3.83
2023-04-26T00:15:30.362Z,4.10
2023-04-26T00:17:57.077Z,3.60
2023-04-26T00:20:23.983Z,4.30
2023-04-26T00:22:51.167Z,4.03
2023-04-26T00:25:17.948Z,4.37
2023-04-26T00:27:44.427Z,3.80
2023-04-26T00:30:11.458Z,3.80
2023-04-26T00:32:38.079Z,3.80
2023-04-26T00:35:04.940Z,4.10
2023-04-26T00:37:31.633Z,4.20
2023-04-26T00:39:58.029Z,3.70
2023-04-26T00:42:24.672Z,3.90
2023-04-26T00:44:55.261Z,4.00
2023-04-26T00:47:21.796Z,4.50
2023-04-26T00:49:48.264Z,4.23
2023-04-26T00:52:14.753Z,4.70
2023-04-26T00:54:41.745Z,4.20
2023-04-26T00:57:09.762Z,4.70
2023-04-26T00:59:36.537Z,5.33
2023-04-26T01:02:03.658Z,4.97
2023-04-26T01:04:31.008Z,4.10
2023-04-26T01:06:58.339Z,4.50
2023-04-26T01:09:25.360Z,4.40
2023-04-26T01:11:52.864Z,4.57
2023-04-26T01:14:20.513Z,4.77
2023-04-26T01:16:47.488Z,5.17
2023-04-26T01:19:15.433Z,4.90
2023-04-26T01:21:42.827Z,5.40
2023-04-26T01:24:11.004Z,5.20
2023-04-26T01:26:45.851Z,4.97
2023-04-26T01:29:20.918Z,5.47
2023-04-26T01:31:48.326Z,4.97
2023-04-26T01:34:15.724Z,5.00
2023-04-26T01:36:42.701Z,5.27
2023-04-26T01:39:10.332Z,5.47
2023-04-26T01:41:37.162Z,5.23
2023-04-26T01:44:04.530Z,5.03
2023-04-26T01:46:31.227Z,4.90
2023-04-26T01:48:58.066Z,4.80
2023-04-26T01:51:24.802Z,6.00
2023-04-26T01:53:51.713Z,5.00
2023-04-26T01:56:19.532Z,5.27
2023-04-26T01:58:46.245Z,5.13
2023-04-26T02:01:12.920Z,4.97
2023-04-26T02:03:39.566Z,4.63
2023-04-26T02:06:06.461Z,4.60
2023-04-26T02:08:33.540Z,5.07
2023-04-26T02:11:00.238Z,5.30
2023-04-26T02:13:27.130Z,5.20
2023-04-26T02:15:54.255Z,5.03
2023-04-26T02:18:22.201Z,4.77
2023-04-26T02:20:48.982Z,5.00
2023-04-26T02:23:15.894Z,5.43
2023-04-26T02:25:45.876Z,4.87
2023-04-26T02:28:12.556Z,5.83
2023-04-26T02:30:39.258Z,5.80
2023-04-26T02:33:06.021Z,5.40
2023-04-26T02:35:32.622Z,5.47
2023-04-26T02:37:59.164Z,5.67
2023-04-26T02:40:25.831Z,5.30
2023-04-26T02:42:52.354Z,5.77
2023-04-26T02:45:19.025Z,5.37
2023-04-26T02:47:45.885Z,5.33
2023-04-26T02:50:12.425Z,5.63
2023-04-26T02:52:38.962Z,5.50
2023-04-26T02:55:06.076Z,5.57
2023-04-26T02:57:33.173Z,5.73
2023-04-26T02:59:59.810Z,5.50
2023-04-26T03:02:26.606Z,5.40
2023-04-26T03:04:53.699Z,5.40
2023-04-26T03:07:20.276Z,5.57
2023-04-26T03:09:46.902Z,6.00
2023-04-26T03:12:13.956Z,5.80
2023-04-26T03:14:40.443Z,4.90
2023-04-26T03:17:06.865Z,5.73
2023-04-26T03:19:34.210Z,4.93
2023-04-26T03:22:00.643Z,5.47
2023-04-26T03:24:27.158Z,5.23
2023-04-26T03:26:54.126Z,5.13
2023-04-26T03:29:20.682Z,5.40
2023-04-26T03:31:47.183Z,5.53
2023-04-26T03:34:13.773Z,5.20
2023-04-26T03:36:40.214Z,5.63
2023-04-26T03:39:06.745Z,5.33
2023-04-26T03:41:37.013Z,5.57
2023-04-26T03:44:03.651Z,5.30
2023-04-26T03:46:30.620Z,5.07
2023-04-26T03:48:57.188Z,4.83
2023-04-26T03:51:23.616Z,5.53
2023-04-26T03:53:50.086Z,4.90
2023-04-26T03:56:17.086Z,4.93
2023-04-26T03:58:43.582Z,5.07
2023-04-26T04:01:10.072Z,4.70
2023-04-26T04:03:39.196Z,4.70
2023-04-26T04:06:07.956Z,5.33
2023-04-26T04:08:34.429Z,4.33
2023-04-26T04:11:01.423Z,4.87
2023-04-26T04:13:27.920Z,4.80
2023-04-26T04:15:54.535Z,4.63
2023-04-26T04:18:21.233Z,5.00
2023-04-26T04:20:47.743Z,4.83
2023-04-26T04:23:14.360Z,4.60
2023-04-26T04:25:41.092Z,4.70
2023-04-26T04:28:08.543Z,4.40
2023-04-26T04:30:35.636Z,4.50
2023-04-26T04:33:03.460Z,4.87
2023-04-26T04:35:33.825Z,4.53
2023-04-26T04:38:01.750Z,6.33
2023-04-26T04:40:28.532Z,6.30
2023-04-26T04:42:55.632Z,8.30
2023-04-26T04:45:22.255Z,5.90
2023-04-26T04:47:48.898Z,5.30
2023-04-26T04:50:15.974Z,5.00
2023-04-26T04:52:42.626Z,4.77
2023-04-26T04:55:09.918Z,4.20
2023-04-26T04:57:36.514Z,4.07
2023-04-26T05:00:10.284Z,4.20
2023-04-26T05:02:37.662Z,4.30
2023-04-26T05:05:05.288Z,4.10
2023-04-26T05:07:32.533Z,4.40
2023-04-26T05:09:59.843Z,4.53
2023-04-26T05:12:26.560Z,4.10
2023-04-26T05:14:53.275Z,4.13
2023-04-26T05:17:20.146Z,3.57
2023-04-26T05:19:47.337Z,3.83
2023-04-26T05:22:18.426Z,3.83
2023-04-26T05:24:48.263Z,4.13
2023-04-26T05:27:15.040Z,3.93
2023-04-26T05:29:42.062Z,3.30
2023-04-26T05:32:08.916Z,3.90
2023-04-26T05:34:35.536Z,4.10
2023-04-26T05:37:02.060Z,4.00
2023-04-26T05:39:28.522Z,3.93
2023-04-26T05:41:55.074Z,4.00
2023-04-26T05:44:21.764Z,3.47
2023-04-26T05:46:48.283Z,3.93
2023-04-26T05:49:14.772Z,3.77
2023-04-26T05:51:41.334Z,3.67
2023-04-26T05:54:07.831Z,3.17
2023-04-26T05:56:34.399Z,3.47
2023-04-26T05:59:00.856Z,3.70
2023-04-26T06:01:27.830Z,3.60
2023-04-26T06:03:57.965Z,3.70
2023-04-26T06:06:28.208Z,3.70
2023-04-26T06:08:55.035Z,4.00
2023-04-26T06:11:21.680Z,3.67
2023-04-26T06:13:48.290Z,3.87
2023-04-26T06:16:14.830Z,3.13
2023-04-26T06:18:41.626Z,3.97
2023-04-26T06:21:08.192Z,3.83
2023-04-26T06:23:34.764Z,4.17
2023-04-26T06:26:01.314Z,4.40
2023-04-26T06:28:27.778Z,4.63
2023-04-26T06:30:54.218Z,5.70
2023-04-26T06:33:20.797Z,4.87
2023-04-26T06:35:47.280Z,5.67
2023-04-26T06:38:13.838Z,5.10
2023-04-26T06:40:40.309Z,4.37
2023-04-26T06:43:06.835Z,3.92
2023-04-26T06:45:33.564Z,3.58
2023-04-26T06:48:01.647Z,3.20
2023-04-26T06:50:28.233Z,3.33
2023-04-26T06:52:54.633Z,4.00
2023-04-26T06:55:21.405Z,4.47
2023-04-26T06:57:49.532Z,2.97
2023-04-26T07:00:16.273Z,3.35
2023-04-26T07:02:42.915Z,3.33
2023-04-26T07:05:09.697Z,3.50
2023-04-26T07:07:36.227Z,3.13
2023-04-26T07:10:03.532Z,3.20
2023-04-26T07:12:31.276Z,3.50
2023-04-26T07:14:58.078Z,3.58
2023-04-26T07:17:24.676Z,3.40
2023-04-26T07:19:51.218Z,3.70
2023-04-26T07:22:17.894Z,3.40
2023-04-26T07:24:44.309Z,3.00
2023-04-26T07:27:11.259Z,2.90
2023-04-26T07:29:38.897Z,2.70
2023-04-26T07:32:06.026Z,2.70
2023-04-26T07:34:32.735Z,3.40
2023-04-26T07:36:59.206Z,2.78
2023-04-26T07:39:26.543Z,2.67
2023-04-26T07:41:53.047Z,2.60
2023-04-26T07:44:19.504Z,2.60
2023-04-26T07:46:46.092Z,2.33
2023-04-26T07:49:13.790Z,2.53
2023-04-26T07:51:44.375Z,2.60
2023-04-26T07:54:11.041Z,2.30
2023-04-26T07:56:37.583Z,2.70
2023-04-26T07:59:05.021Z,2.42
2023-04-26T08:01:31.425Z,2.70
2023-04-26T08:03:58.377Z,2.67
2023-04-26T08:06:25.746Z,2.42
2023-04-26T08:08:53.700Z,2.60
2023-04-26T08:11:20.375Z,2.42
2023-04-26T08:13:46.905Z,2.77
2023-04-26T08:16:14.270Z,3.08
2023-04-26T08:18:40.925Z,2.60
2023-04-26T08:21:07.719Z,3.42
2023-04-26T08:23:38.357Z,2.53
2023-04-26T08:26:05.159Z,2.97
2023-04-26T08:28:32.555Z,2.95
2023-04-26T08:30:59.100Z,2.70
2023-04-26T08:33:26.183Z,2.40
2023-04-26T08:35:52.793Z,3.20
2023-04-26T08:38:19.366Z,2.80
2023-04-26T08:40:46.736Z,2.57
2023-04-26T08:43:15.021Z,2.75
2023-04-26T08:45:44.492Z,2.50
2023-04-26T08:48:14.969Z,2.35
2023-04-26T08:50:45.539Z,3.08
2023-04-26T08:53:17.791Z,2.88
2023-04-26T08:55:51.085Z,3.22
2023-04-26T08:58:18.589Z,2.75
2023-04-26T09:00:46.142Z,2.88
2023-04-26T09:03:13.830Z,2.63
2023-04-26T09:05:43.935Z,2.60
2023-04-26T09:08:13.698Z,2.47
2023-04-26T09:10:40.270Z,2.67
2023-04-26T09:13:06.740Z,2.80
2023-04-26T09:15:33.172Z,3.03
2023-04-26T09:18:20.014Z,2.97
2023-04-26T09:21:05.043Z,2.72
2023-04-26T09:23:32.198Z,2.80
2023-04-26T09:26:21.584Z,2.90
2023-04-26T09:28:48.440Z,2.90
2023-04-26T09:31:39.152Z,2.60
2023-04-26T09:34:05.838Z,2.28
2023-04-26T09:36:32.482Z,2.25
2023-04-26T09:39:00.432Z,2.88
2023-04-26T09:41:43.378Z,2.38
2023-04-26T09:44:21.348Z,2.45
2023-04-26T09:47:05.141Z,2.92
2023-04-26T09:49:44.197Z,2.77
2023-04-26T09:52:10.793Z,2.70
2023-04-26T09:54:51.683Z,2.00
2023-04-26T09:57:19.914Z,2.40
2023-04-26T09:59:55.597Z,2.73
2023-04-26T10:02:23.996Z,2.47
2023-04-26T10:04:52.752Z,2.78
2023-04-26T10:07:21.784Z,3.47
2023-04-26T10:09:49.516Z,2.73
2023-04-26T10:12:18.293Z,3.15
2023-04-26T10:14:46.530Z,2.83
2023-04-26T10:17:13.840Z,2.57
2023-04-26T10:19:44.105Z,3.07
2023-04-26T10:22:16.460Z,3.00
2023-04-26T10:24:44.460Z,3.10
2023-04-26T10:27:11.076Z,3.03
2023-04-26T10:29:56.475Z,2.90
2023-04-26T10:32:23.990Z,2.22
2023-04-26T10:35:13.870Z,2.75
2023-04-26T10:37:59.303Z,2.65
2023-04-26T10:40:33.290Z,3.00
2023-04-26T10:43:08.926Z,3.00
2023-04-26T10:45:36.102Z,2.75
2023-04-26T10:48:17.804Z,2.63
2023-04-26T10:51:02.690Z,2.42
2023-04-26T10:53:34.233Z,2.97
2023-04-26T10:56:00.833Z,2.97
2023-04-26T10:58:28.261Z,2.80
2023-04-26T11:01:17.282Z,3.00
2023-04-26T11:04:02.218Z,3.07
2023-04-26T11:06:47.392Z,2.92
2023-04-26T11:09:37.261Z,3.30
2023-04-26T11:12:05.380Z,3.00
2023-04-26T11:14:34.224Z,2.80
2023-04-26T11:17:04.539Z,2.90
2023-04-26T11:19:31.976Z,3.70
2023-04-26T11:22:01.945Z,3.20
2023-04-26T11:24:31.254Z,3.10
2023-04-26T11:27:00.594Z,3.13
2023-04-26T11:29:27.062Z,2.83
2023-04-26T11:31:58.039Z,3.05
2023-04-26T11:34:35.173Z,2.50
2023-04-26T11:37:02.600Z,2.83
2023-04-26T11:39:29.191Z,2.67
2023-04-26T11:42:09.017Z,2.70
2023-04-26T11:44:36.492Z,2.50
2023-04-26T11:47:04.208Z,2.55
2023-04-26T11:49:36.328Z,3.10
2023-04-26T11:52:04.855Z,2.70
2023-04-26T11:54:32.908Z,2.90
2023-04-26T11:56:59.568Z,2.90
2023-04-26T11:59:27.302Z,3.10
2023-04-26T12:01:53.886Z,3.20
2023-04-26T12:04:30.148Z,3.30
2023-04-26T12:06:57.858Z,3.17
2023-04-26T12:09:25.136Z,3.00
2023-04-26T12:12:08.225Z,3.00
2023-04-26T12:14:36.571Z,3.15
2023-04-26T12:17:06.193Z,2.85
2023-04-26T12:19:33.375Z,3.10
2023-04-26T12:22:01.266Z,3.00
2023-04-26T12:24:38.687Z,2.60
2023-04-26T12:27:09.062Z,3.00
2023-04-26T12:29:35.747Z,2.80
2023-04-26T12:32:03.066Z,2.78
2023-04-26T12:34:29.819Z,3.10
2023-04-26T12:36:56.572Z,3.35
2023-04-26T12:39:23.079Z,2.88
2023-04-26T12:41:49.629Z,3.22
2023-04-26T12:44:16.311Z,3.17
2023-04-26T12:46:42.815Z,3.28
2023-04-26T12:49:09.511Z,3.33
2023-04-26T12:51:35.967Z,3.03
2023-04-26T12:54:02.983Z,3.53
2023-04-26T12:56:29.677Z,3.30
2023-04-26T12:58:56.220Z,3.55
2023-04-26T13:01:22.914Z,3.78
2023-04-26T13:03:49.669Z,3.80
2023-04-26T13:06:16.799Z,3.58
2023-04-26T13:08:43.212Z,3.33
2023-04-26T13:11:09.649Z,3.60
2023-04-26T13:13:43.928Z,3.90
2023-04-26T13:16:11.963Z,3.53
2023-04-26T13:18:39.296Z,3.88
2023-04-26T13:21:05.986Z,3.50
2023-04-26T13:23:32.488Z,3.50
2023-04-26T13:25:58.965Z,3.55
2023-04-26T13:28:25.624Z,3.40
2023-04-26T13:30:52.497Z,3.38
2023-04-26T13:33:21.453Z,2.85
2023-04-26T13:35:48.361Z,3.20
2023-04-26T13:38:15.947Z,3.17
2023-04-26T13:40:42.964Z,3.67
2023-04-26T13:43:09.786Z,3.38
2023-04-26T13:45:36.256Z,3.20
2023-04-26T13:48:02.821Z,3.30
2023-04-26T13:50:29.350Z,3.28
2023-04-26T13:52:56.702Z,3.50
2023-04-26T13:55:23.411Z,3.17
2023-04-26T13:57:49.852Z,3.10
2023-04-26T14:00:16.808Z,3.50
2023-04-26T14:02:43.674Z,3.13
2023-04-26T14:05:10.513Z,3.30
2023-04-26T14:07:37.168Z,3.00
2023-04-26T14:10:04.262Z,2.97
2023-04-26T14:12:31.063Z,2.97
2023-04-26T14:14:57.620Z,3.67
2023-04-26T14:17:25.426Z,3.15
2023-04-26T14:19:54.106Z,3.33
2023-04-26T14:22:21.399Z,3.30
2023-04-26T14:24:47.988Z,3.30
2023-04-26T14:27:14.862Z,3.60
2023-04-26T14:29:41.295Z,3.50
2023-04-26T14:32:07.916Z,3.15
2023-04-26T14:34:39.003Z,2.92
2023-04-26T14:37:06.763Z,3.10
2023-04-26T14:39:33.266Z,3.30
2023-04-26T14:41:59.816Z,3.45
2023-04-26T14:44:27.224Z,3.55
2023-04-26T14:46:53.830Z,3.38
2023-04-26T14:49:20.624Z,3.03
2023-04-26T14:51:47.349Z,3.40
2023-04-26T14:54:13.864Z,3.20
2023-04-26T14:56:40.493Z,3.22
2023-04-26T14:59:08.009Z,3.58
2023-04-26T15:01:34.551Z,3.20
2023-04-26T15:04:01.864Z,3.60
2023-04-26T15:06:29.017Z,3.22
2023-04-26T15:08:55.546Z,3.80
2023-04-26T15:11:22.053Z,3.88
2023-04-26T15:13:48.613Z,3.50
2023-04-26T15:16:15.150Z,3.70
2023-04-26T15:18:41.917Z,3.65
2023-04-26T15:21:09.182Z,3.60
2023-04-26T15:23:36.029Z,3.13
2023-04-26T15:26:03.530Z,3.53
2023-04-26T15:28:30.440Z,3.75
2023-04-26T15:31:08.836Z,4.22
2023-04-26T15:33:35.666Z,5.00
2023-04-26T15:36:02.289Z,3.93
2023-04-26T15:38:28.766Z,4.20
2023-04-26T15:40:55.416Z,4.17
2023-04-26T15:43:22.071Z,3.87
2023-04-26T15:45:49.701Z,3.60
2023-04-26T15:48:16.709Z,3.97
2023-04-26T15:50:43.152Z,3.60
2023-04-26T15:53:09.890Z,3.50
2023-04-26T15:55:36.454Z,3.33
2023-04-26T15:58:03.420Z,6.30
2023-04-26T16:00:31.689Z,3.60
2023-04-26T16:02:58.292Z,3.93
2023-04-26T16:05:24.864Z,4.47
2023-04-26T16:07:51.364Z,4.30
2023-04-26T16:10:17.881Z,3.93
2023-04-26T16:12:44.861Z,3.80
2023-04-26T16:15:11.595Z,3.50
2023-04-26T16:17:39.004Z,3.40
2023-04-26T16:20:07.009Z,3.50
2023-04-26T16:22:34.365Z,3.42
2023-04-26T16:25:01.093Z,3.07
2023-04-26T16:27:27.858Z,3.45
2023-04-26T16:29:54.505Z,3.25
2023-04-26T16:32:21.462Z,3.40
2023-04-26T16:34:48.195Z,3.42
2023-04-26T16:37:14.785Z,3.10
2023-04-26T16:39:41.345Z,3.03
2023-04-26T16:42:07.893Z,3.73
2023-04-26T16:44:34.408Z,4.07
2023-04-26T16:47:01.675Z,5.00
2023-04-26T16:49:28.354Z,3.70
2023-04-26T16:51:58.799Z,3.40
2023-04-26T16:54:26.116Z,3.47
2023-04-26T16:56:53.834Z,2.90
2023-04-26T16:59:20.745Z,3.40
2023-04-26T17:01:47.371Z,3.43
2023-04-26T17:04:14.329Z,3.03
2023-04-26T17:06:41.189Z,3.03
2023-04-26T17:09:08.705Z,3.17
2023-04-26T17:11:37.290Z,3.13
2023-04-26T17:14:04.528Z,3.47
2023-04-26T17:16:31.701Z,3.47
2023-04-26T17:18:58.612Z,3.47
2023-04-26T17:21:25.473Z,3.07
2023-04-26T17:23:52.572Z,3.93
2023-04-26T17:26:19.129Z,3.43
2023-04-26T17:28:45.833Z,3.70
2023-04-26T17:31:12.624Z,3.93
2023-04-26T17:33:39.083Z,3.67
2023-04-26T17:36:06.364Z,3.63
2023-04-26T17:38:33.388Z,3.67
2023-04-26T17:41:00.031Z,3.70
2023-04-26T17:43:27.399Z,3.70
2023-04-26T17:45:53.974Z,4.40
2023-04-26T17:48:20.596Z,4.10
2023-04-26T17:50:47.163Z,4.43
2023-04-26T17:53:13.774Z,3.80
2023-04-26T17:55:40.566Z,4.40
2023-04-26T17:58:07.003Z,4.13
2023-04-26T18:00:33.810Z,3.90
2023-04-26T18:03:02.960Z,5.67
2023-04-26T18:05:29.714Z,10.03
2023-04-26T18:07:56.596Z,15.60
2023-04-26T18:10:23.264Z,19.07
2023-04-26T18:12:49.810Z,10.17
2023-04-26T18:15:16.230Z,5.20
2023-04-26T18:17:42.844Z,4.20
2023-04-26T18:20:11.157Z,4.90
2023-04-26T18:22:37.780Z,4.03
2023-04-26T18:25:04.855Z,4.17
2023-04-26T18:27:31.777Z,4.03
2023-04-26T18:29:58.326Z,4.03
2023-04-26T18:32:24.908Z,4.40
2023-04-26T18:34:51.437Z,4.17
2023-04-26T18:37:18.280Z,3.83
2023-04-26T18:39:45.348Z,14.80
2023-04-26T18:42:11.888Z,42.00
2023-04-26T18:44:38.363Z,16.13
2023-04-26T18:47:05.704Z,9.50
2023-04-26T18:49:32.208Z,5.90
2023-04-26T18:51:58.765Z,4.93
2023-04-26T18:54:26.303Z,5.20
2023-04-26T18:56:52.834Z,5.00
2023-04-26T18:59:19.452Z,4.97
2023-04-26T19:01:45.952Z,4.80
2023-04-26T19:04:12.606Z,4.53
2023-04-26T19:06:41.368Z,4.80
2023-04-26T19:09:11.664Z,4.83
2023-04-26T19:11:38.408Z,4.53
2023-04-26T19:14:05.034Z,4.83
2023-04-26T19:16:31.948Z,4.83
2023-04-26T19:18:58.748Z,4.63
2023-04-26T19:21:25.357Z,4.73
2023-04-26T19:23:52.059Z,5.50
2023-04-26T19:26:18.621Z,5.10
2023-04-26T19:28:45.303Z,5.63
2023-04-26T19:31:11.750Z,5.40
2023-04-26T19:33:40.382Z,5.60
2023-04-26T19:36:09.003Z,5.97
2023-04-26T19:38:35.892Z,5.20
2023-04-26T19:41:02.602Z,4.90
2023-04-26T19:43:29.114Z,4.83
2023-04-26T19:45:55.626Z,5.47
2023-04-26T19:48:22.365Z,5.57
2023-04-26T19:50:48.822Z,5.30
2023-04-26T19:53:15.503Z,4.80
2023-04-26T19:55:42.437Z,5.13
2023-04-26T19:58:10.553Z,5.03
2023-04-26T20:00:38.082Z,4.73
2023-04-26T20:03:05.367Z,4.90
2023-04-26T20:05:32.242Z,5.00
2023-04-26T20:07:58.665Z,5.10
2023-04-26T20:10:25.421Z,6.30
2023-04-26T20:12:53.088Z,5.63
2023-04-26T20:15:19.593Z,5.60
2023-04-26T20:17:46.235Z,5.70
2023-04-26T20:20:13.026Z,6.10
2023-04-26T20:22:40.222Z,6.37
2023-04-26T20:25:07.705Z,5.73
2023-04-26T20:27:34.846Z,6.73
2023-04-26T20:30:01.730Z,5.70
2023-04-26T20:32:28.428Z,6.50
2023-04-26T20:34:54.906Z,6.63
2023-04-26T20:37:22.042Z,6.50
2023-04-26T20:39:49.027Z,6.37
2023-04-26T20:42:16.185Z,7.00
2023-04-26T20:44:43.141Z,6.27
2023-04-26T20:47:09.722Z,6.67
2023-04-26T20:49:36.338Z,5.90
2023-04-26T20:52:02.878Z,6.00
2023-04-26T20:54:29.501Z,6.50
2023-04-26T20:56:56.067Z,7.03
2023-04-26T20:59:24.949Z,6.60
2023-04-26T21:01:52.852Z,6.80
2023-04-26T21:06:45.809Z,7.67
2023-04-26T21:09:12.449Z,8.23
2023-04-26T21:11:38.982Z,8.53
2023-04-26T21:14:06.731Z,8.87
2023-04-26T21:16:33.310Z,8.37
2023-04-26T21:18:59.791Z,8.37
2023-04-26T21:21:28.313Z,7.53
2023-04-26T21:23:55.071Z,7.73
2023-04-26T21:26:21.548Z,6.90
2023-04-26T21:28:48.715Z,7.10
2023-04-26T21:31:15.473Z,6.80
2023-04-26T21:33:42.090Z,6.57
2023-04-26T21:36:08.846Z,6.00
2023-04-26T21:38:35.409Z,6.37
2023-04-26T21:41:01.914Z,6.80
2023-04-26T21:43:28.482Z,7.23
2023-04-26T21:45:56.417Z,6.50
2023-04-26T21:48:22.846Z,10.70
2023-04-26T21:50:49.920Z,9.80
2023-04-26T21:53:16.808Z,8.90
2023-04-26T21:55:43.186Z,8.63
2023-04-26T21:58:09.687Z,8.20
2023-04-26T22:00:36.106Z,9.40
2023-04-26T22:03:02.957Z,8.73
2023-04-26T22:05:29.618Z,8.70
2023-04-26T22:07:56.272Z,7.47
2023-04-26T22:10:22.808Z,7.83
2023-04-26T22:12:49.347Z,7.60
2023-04-26T22:15:16.321Z,7.43
2023-04-26T22:17:43.321Z,7.17
2023-04-26T22:20:10.535Z,7.77
2023-04-26T22:22:37.010Z,7.57
2023-04-26T22:25:03.980Z,7.50
2023-04-26T22:27:31.706Z,7.87
2023-04-26T22:29:58.896Z,9.03
2023-04-26T22:32:28.795Z,8.00
2023-04-26T22:34:55.445Z,7.87
2023-04-26T22:37:21.978Z,10.10
2023-04-26T22:39:49.233Z,12.40
2023-04-26T22:42:16.184Z,11.87
2023-04-26T22:44:42.630Z,12.50
2023-04-26T22:47:09.061Z,11.10
2023-04-26T22:49:35.644Z,10.37
2023-04-26T22:52:09.796Z,9.60
2023-04-26T22:54:43.694Z,10.00
2023-04-26T22:57:10.167Z,11.60
2023-04-26T22:59:36.789Z,13.30
2023-04-26T23:02:03.943Z,15.30
2023-04-26T23:04:30.483Z,15.80
2023-04-26T23:06:57.090Z,14.37
2023-04-26T23:09:23.549Z,14.80
2023-04-26T23:11:49.980Z,13.57
2023-04-26T23:14:17.221Z,13.60
2023-04-26T23:16:44.111Z,11.70
2023-04-26T23:19:11.259Z,11.80
2023-04-26T23:21:38.309Z,11.00
2023-04-26T23:24:05.508Z,11.37
2023-04-26T23:26:32.678Z,10.90
2023-04-26T23:29:00.115Z,10.83
2023-04-26T23:31:26.725Z,10.27
2023-04-26T23:33:53.524Z,10.53
2023-04-26T23:36:20.257Z,10.57
2023-04-26T23:38:46.833Z,11.27
2023-04-26T23:41:13.518Z,10.47
2023-04-26T23:43:40.399Z,11.20
2023-04-26T23:46:07.193Z,10.57
2023-04-26T23:48:33.888Z,10.40
2023-04-26T23:51:00.635Z,10.90
2023-04-26T23:53:27.735Z,10.33
2023-04-26T23:55:54.279Z,10.50
2023-04-26T23:58:20.733Z,11.23
